createdAt,value
2022-11-15T00:00:03.314Z,75
2022-11-15T00:20:02.871Z,76
2022-11-15T00:40:03.193Z,76
2022-11-15T01:00:02.836Z,75
2022-11-15T01:20:02.873Z,76
2022-11-15T01:40:02.428Z,76
2022-11-15T02:00:02.992Z,77
2022-11-15T02:20:02.872Z,77
2022-11-15T02:40:02.558Z,77
2022-11-15T03:00:03.025Z,78
2022-11-15T03:20:02.591Z,77
2022-11-15T03:40:03.184Z,77
2022-11-15T04:00:02.580Z,77
2022-11-15T04:20:03.208Z,77
2022-11-15T04:40:02.680Z,77
2022-11-15T05:00:03.145Z,77
2022-11-15T05:20:02.807Z,77
2022-11-15T05:40:03.307Z,77
2022-11-15T06:00:02.889Z,77
2022-11-15T06:20:02.273Z,77
2022-11-15T06:40:02.704Z,76
2022-11-15T07:00:03.147Z,77
2022-11-15T07:20:02.758Z,77
2022-11-15T07:40:03.238Z,77
2022-11-15T08:00:03.066Z,78
2022-11-15T08:20:02.887Z,78
2022-11-15T08:40:02.330Z,79
2022-11-15T09:00:02.888Z,79
2022-11-15T09:20:02.441Z,78
2022-11-15T09:40:02.825Z,77
2022-11-15T10:00:52.218Z,75
2022-11-15T10:20:06.507Z,72
2022-11-15T10:40:02.847Z,70
2022-11-15T11:00:03.517Z,67
2022-11-15T11:20:03.394Z,65
2022-11-15T11:40:10.589Z,64
2022-11-15T12:00:02.481Z,63
2022-11-15T12:20:02.444Z,63
2022-11-15T12:40:04.597Z,63
2022-11-15T13:00:03.219Z,64
2022-11-15T13:20:03.059Z,64
2022-11-15T13:40:02.681Z,65
2022-11-15T14:00:03.483Z,66
2022-11-15T14:20:03.582Z,67
2022-11-15T14:40:02.992Z,68
2022-11-15T15:00:02.518Z,68
2022-11-15T15:20:03.894Z,70
2022-11-15T15:40:02.669Z,70
2022-11-15T16:00:03.360Z,71
2022-11-15T16:20:03.341Z,72
2022-11-15T16:40:03.097Z,72
2022-11-15T17:00:02.456Z,73
2022-11-15T17:20:03.122Z,74
2022-11-15T17:40:02.735Z,75
2022-11-15T18:00:03.076Z,76
2022-11-15T18:20:02.667Z,76
2022-11-15T18:40:03.073Z,77
2022-11-15T19:00:02.897Z,78
2022-11-15T19:20:02.683Z,78
2022-11-15T19:40:04.302Z,78
2022-11-15T20:00:07.747Z,79
2022-11-15T20:20:02.984Z,79
2022-11-15T20:40:02.885Z,79
2022-11-15T21:00:06.239Z,79
2022-11-15T21:20:02.866Z,79
2022-11-15T21:40:02.383Z,79
2022-11-15T22:00:03.148Z,80
2022-11-15T22:20:43.367Z,80
2022-11-15T22:40:02.416Z,80
2022-11-15T23:00:03.033Z,80
2022-11-15T23:40:02.758Z,81
